Airfield :
LOGIN :

Register | Disclaimer

   EN    FR    IT 

 










Legend :    VFR   Marginal VFR   IFR   Intensive IFR   Very Intensive IFR
Visi :
Ceiling :
>= 8 km
>= 3000ft
5 to 8 km
1000 to 3000 ft
1500m to 5 km
500 to 1000 ft
800 to 1500m
200 to 500 ft
< 800m
< 200 ft
Symbols :   Thunderstorms  Fog  Heavy snow  Heavy precipitations  Wind > 20 kt
SIGMETs :     Misc.  Thunderstorms  Icing  Turbulence  Mountain Waves  Volcanic Ashes






- Airport Elevation : 2425 ft


ETHA - Altenstadt Army

CURRENT METAR :
  • 121320Z 28002KT 9999 FEW015 BKN080 04/01 Q1005 BLU BLU

EXPIRED METARs :
  • 121220Z VRB02KT 9999 FEW013 BKN080 04/01 Q1006 BLU BLU
  • 121120Z 24005KT 9999 SCT015 BKN080 OVC140 04/01 Q1006 BLU BLU

TAF TAF ETHA
Valid from the 12 at 12:00 until the 12 at 21:00 UTC


121120Z 1212/1221 26007KT 9999 NSW SCT015 BKN070 BKN120



MET'MAP, your aeronautical weather chart ! - Copyright ORBIFLY December 2007 - Disclaimer

ORBIFLY MET'MAP TEAM :

Programming & Development : Alexandra Zaïnal
Concept & Development : Baudouin d'Aumeries
Co-Development & Prog : Marc-Olivier Méhu
Technical & hardware support : Manuel Goepfert

Contact : metmap@orbifly.com




SOURCES & CREDITS :

   NOAA